sensor_id;sensor_type;location;lat;lon;timestamp;P1;durP1;ratioP1;P2;durP2;ratioP2
505;SDS011;551;48.524;9.056;2022-08-23T00:01:55;9.03;;;5.40;;
505;SDS011;551;48.524;9.056;2022-08-23T00:04:34;6.47;;;5.53;;
505;SDS011;551;48.524;9.056;2022-08-23T00:07:00;6.57;;;5.67;;
505;SDS011;551;48.524;9.056;2022-08-23T00:09:26;6.03;;;5.53;;
505;SDS011;551;48.524;9.056;2022-08-23T00:11:55;7.40;;;4.97;;
505;SDS011;551;48.524;9.056;2022-08-23T00:14:28;6.50;;;5.10;;
505;SDS011;551;48.524;9.056;2022-08-23T00:16:55;4.87;;;4.40;;
505;SDS011;551;48.524;9.056;2022-08-23T00:19:22;6.70;;;4.90;;
505;SDS011;551;48.524;9.056;2022-08-23T00:21:49;8.93;;;4.80;;
505;SDS011;551;48.524;9.056;2022-08-23T00:24:15;5.30;;;4.80;;
505;SDS011;551;48.524;9.056;2022-08-23T00:29:18;7.60;;;5.20;;
505;SDS011;551;48.524;9.056;2022-08-23T00:31:44;5.53;;;5.03;;
505;SDS011;551;48.524;9.056;2022-08-23T00:34:10;6.30;;;5.70;;
505;SDS011;551;48.524;9.056;2022-08-23T00:36:36;6.47;;;5.50;;
505;SDS011;551;48.524;9.056;2022-08-23T00:39:02;6.63;;;4.70;;
505;SDS011;551;48.524;9.056;2022-08-23T00:41:29;5.97;;;5.10;;
505;SDS011;551;48.524;9.056;2022-08-23T00:43:55;5.90;;;5.40;;
505;SDS011;551;48.524;9.056;2022-08-23T00:46:42;5.17;;;4.67;;
505;SDS011;551;48.524;9.056;2022-08-23T00:49:27;6.80;;;6.10;;
505;SDS011;551;48.524;9.056;2022-08-23T00:52:07;8.07;;;5.77;;
505;SDS011;551;48.524;9.056;2022-08-23T00:54:35;7.23;;;6.20;;
505;SDS011;551;48.524;9.056;2022-08-23T00:57:04;6.87;;;6.27;;
505;SDS011;551;48.524;9.056;2022-08-23T00:59:30;7.17;;;6.30;;
505;SDS011;551;48.524;9.056;2022-08-23T01:01:57;6.93;;;6.00;;
505;SDS011;551;48.524;9.056;2022-08-23T01:04:25;6.30;;;5.67;;
505;SDS011;551;48.524;9.056;2022-08-23T01:06:57;5.97;;;5.47;;
505;SDS011;551;48.524;9.056;2022-08-23T01:09:24;5.80;;;5.00;;
505;SDS011;551;48.524;9.056;2022-08-23T01:11:55;7.97;;;5.50;;
505;SDS011;551;48.524;9.056;2022-08-23T01:14:43;5.10;;;4.70;;
505;SDS011;551;48.524;9.056;2022-08-23T01:17:24;9.17;;;5.73;;
505;SDS011;551;48.524;9.056;2022-08-23T01:20:03;6.17;;;4.83;;
505;SDS011;551;48.524;9.056;2022-08-23T01:22:42;6.20;;;5.20;;
505;SDS011;551;48.524;9.056;2022-08-23T01:25:13;5.60;;;4.40;;
505;SDS011;551;48.524;9.056;2022-08-23T01:27:39;5.43;;;4.93;;
505;SDS011;551;48.524;9.056;2022-08-23T01:30:07;6.03;;;5.00;;
505;SDS011;551;48.524;9.056;2022-08-23T01:32:34;5.50;;;4.70;;
505;SDS011;551;48.524;9.056;2022-08-23T01:35:02;7.73;;;4.97;;
505;SDS011;551;48.524;9.056;2022-08-23T01:37:28;5.83;;;4.93;;
505;SDS011;551;48.524;9.056;2022-08-23T01:39:54;5.80;;;5.20;;
505;SDS011;551;48.524;9.056;2022-08-23T01:42:20;6.50;;;5.53;;
505;SDS011;551;48.524;9.056;2022-08-23T01:44:46;6.17;;;5.10;;
505;SDS011;551;48.524;9.056;2022-08-23T01:47:12;7.07;;;4.87;;
505;SDS011;551;48.524;9.056;2022-08-23T01:49:38;5.80;;;5.23;;
505;SDS011;551;48.524;9.056;2022-08-23T01:52:04;7.70;;;5.77;;
505;SDS011;551;48.524;9.056;2022-08-23T01:54:30;5.63;;;5.23;;
505;SDS011;551;48.524;9.056;2022-08-23T01:56:56;6.27;;;5.67;;
505;SDS011;551;48.524;9.056;2022-08-23T01:59:22;6.87;;;5.03;;
505;SDS011;551;48.524;9.056;2022-08-23T02:01:48;5.73;;;5.23;;
505;SDS011;551;48.524;9.056;2022-08-23T02:04:14;6.37;;;5.40;;
505;SDS011;551;48.524;9.056;2022-08-23T02:06:40;7.03;;;5.50;;
505;SDS011;551;48.524;9.056;2022-08-23T02:09:06;6.90;;;6.27;;
505;SDS011;551;48.524;9.056;2022-08-23T02:11:33;7.40;;;6.33;;
505;SDS011;551;48.524;9.056;2022-08-23T02:14:03;6.83;;;5.67;;
505;SDS011;551;48.524;9.056;2022-08-23T02:16:39;6.40;;;5.30;;
505;SDS011;551;48.524;9.056;2022-08-23T02:19:07;7.40;;;5.13;;
505;SDS011;551;48.524;9.056;2022-08-23T02:21:34;5.93;;;5.33;;
505;SDS011;551;48.524;9.056;2022-08-23T02:24:11;6.97;;;6.27;;
505;SDS011;551;48.524;9.056;2022-08-23T02:26:38;5.80;;;5.30;;
505;SDS011;551;48.524;9.056;2022-08-23T02:29:05;5.17;;;4.77;;
505;SDS011;551;48.524;9.056;2022-08-23T02:31:31;8.87;;;6.27;;
505;SDS011;551;48.524;9.056;2022-08-23T02:33:57;6.67;;;5.67;;
505;SDS011;551;48.524;9.056;2022-08-23T02:36:24;8.23;;;4.97;;
505;SDS011;551;48.524;9.056;2022-08-23T02:38:51;6.00;;;5.47;;
505;SDS011;551;48.524;9.056;2022-08-23T02:41:17;7.33;;;5.90;;
505;SDS011;551;48.524;9.056;2022-08-23T02:43:43;8.50;;;5.73;;
505;SDS011;551;48.524;9.056;2022-08-23T02:46:09;6.23;;;5.63;;
505;SDS011;551;48.524;9.056;2022-08-23T02:48:35;6.33;;;5.73;;
505;SDS011;551;48.524;9.056;2022-08-23T02:51:02;6.37;;;5.70;;
505;SDS011;551;48.524;9.056;2022-08-23T02:53:29;7.70;;;5.37;;
505;SDS011;551;48.524;9.056;2022-08-23T02:55:55;6.93;;;5.50;;
505;SDS011;551;48.524;9.056;2022-08-23T02:58:21;7.20;;;5.30;;
505;SDS011;551;48.524;9.056;2022-08-23T03:00:48;5.93;;;5.23;;
505;SDS011;551;48.524;9.056;2022-08-23T03:03:14;6.53;;;5.70;;
505;SDS011;551;48.524;9.056;2022-08-23T03:05:40;6.50;;;5.77;;
505;SDS011;551;48.524;9.056;2022-08-23T03:08:07;7.23;;;5.77;;
505;SDS011;551;48.524;9.056;2022-08-23T03:10:33;6.50;;;5.90;;
505;SDS011;551;48.524;9.056;2022-08-23T03:12:59;7.17;;;5.67;;
505;SDS011;551;48.524;9.056;2022-08-23T03:15:25;7.43;;;5.87;;
505;SDS011;551;48.524;9.056;2022-08-23T03:17:51;6.50;;;5.90;;
505;SDS011;551;48.524;9.056;2022-08-23T03:20:17;8.20;;;6.33;;
505;SDS011;551;48.524;9.056;2022-08-23T03:22:43;8.97;;;6.37;;
505;SDS011;551;48.524;9.056;2022-08-23T03:25:10;6.77;;;5.90;;
505;SDS011;551;48.524;9.056;2022-08-23T03:27:36;5.53;;;4.83;;
505;SDS011;551;48.524;9.056;2022-08-23T03:30:02;6.73;;;5.90;;
505;SDS011;551;48.524;9.056;2022-08-23T03:32:29;6.03;;;5.20;;
505;SDS011;551;48.524;9.056;2022-08-23T03:34:54;7.23;;;5.60;;
505;SDS011;551;48.524;9.056;2022-08-23T03:37:21;6.23;;;5.50;;
505;SDS011;551;48.524;9.056;2022-08-23T03:39:47;8.07;;;7.27;;
505;SDS011;551;48.524;9.056;2022-08-23T03:42:14;9.00;;;6.60;;
505;SDS011;551;48.524;9.056;2022-08-23T03:44:39;6.73;;;5.83;;
505;SDS011;551;48.524;9.056;2022-08-23T03:47:05;6.43;;;5.97;;
505;SDS011;551;48.524;9.056;2022-08-23T03:49:31;8.67;;;5.60;;
505;SDS011;551;48.524;9.056;2022-08-23T03:51:57;6.90;;;5.53;;
505;SDS011;551;48.524;9.056;2022-08-23T03:54:24;9.13;;;6.33;;
505;SDS011;551;48.524;9.056;2022-08-23T03:56:53;6.03;;;5.43;;
505;SDS011;551;48.524;9.056;2022-08-23T03:59:19;6.13;;;5.63;;
505;SDS011;551;48.524;9.056;2022-08-23T04:01:45;6.17;;;5.57;;
505;SDS011;551;48.524;9.056;2022-08-23T04:04:11;5.97;;;5.47;;
505;SDS011;551;48.524;9.056;2022-08-23T04:06:37;6.30;;;5.70;;
505;SDS011;551;48.524;9.056;2022-08-23T04:09:03;6.83;;;6.20;;
505;SDS011;551;48.524;9.056;2022-08-23T04:11:29;6.33;;;5.73;;
505;SDS011;551;48.524;9.056;2022-08-23T04:13:56;7.00;;;6.30;;
505;SDS011;551;48.524;9.056;2022-08-23T04:16:22;6.20;;;5.70;;
505;SDS011;551;48.524;9.056;2022-08-23T04:18:48;6.07;;;5.53;;
505;SDS011;551;48.524;9.056;2022-08-23T04:21:15;8.77;;;6.67;;
505;SDS011;551;48.524;9.056;2022-08-23T04:23:43;9.73;;;5.70;;
505;SDS011;551;48.524;9.056;2022-08-23T04:26:09;7.53;;;6.27;;
505;SDS011;551;48.524;9.056;2022-08-23T04:28:35;12.70;;;6.13;;
505;SDS011;551;48.524;9.056;2022-08-23T04:31:01;11.20;;;6.00;;
505;SDS011;551;48.524;9.056;2022-08-23T04:33:27;13.10;;;6.60;;
505;SDS011;551;48.524;9.056;2022-08-23T04:35:55;8.03;;;6.67;;
505;SDS011;551;48.524;9.056;2022-08-23T04:38:21;17.80;;;6.60;;
505;SDS011;551;48.524;9.056;2022-08-23T04:40:47;6.70;;;5.97;;
505;SDS011;551;48.524;9.056;2022-08-23T04:43:32;7.37;;;6.60;;
505;SDS011;551;48.524;9.056;2022-08-23T04:45:58;7.10;;;6.40;;
505;SDS011;551;48.524;9.056;2022-08-23T04:48:24;9.40;;;6.77;;
505;SDS011;551;48.524;9.056;2022-08-23T04:50:51;7.13;;;6.43;;
505;SDS011;551;48.524;9.056;2022-08-23T04:53:17;6.63;;;5.93;;
505;SDS011;551;48.524;9.056;2022-08-23T04:55:43;8.13;;;6.00;;
505;SDS011;551;48.524;9.056;2022-08-23T04:58:09;7.20;;;6.50;;
505;SDS011;551;48.524;9.056;2022-08-23T05:00:35;7.00;;;6.40;;
505;SDS011;551;48.524;9.056;2022-08-23T05:03:01;8.03;;;6.23;;
505;SDS011;551;48.524;9.056;2022-08-23T05:05:27;7.30;;;6.60;;
505;SDS011;551;48.524;9.056;2022-08-23T05:07:53;7.90;;;7.10;;
505;SDS011;551;48.524;9.056;2022-08-23T05:10:19;9.33;;;6.87;;
505;SDS011;551;48.524;9.056;2022-08-23T05:12:45;6.80;;;6.20;;
505;SDS011;551;48.524;9.056;2022-08-23T05:15:12;7.33;;;6.73;;
505;SDS011;551;48.524;9.056;2022-08-23T05:17:38;8.87;;;6.97;;
505;SDS011;551;48.524;9.056;2022-08-23T05:20:05;7.27;;;5.90;;
505;SDS011;551;48.524;9.056;2022-08-23T05:22:32;6.43;;;5.80;;
505;SDS011;551;48.524;9.056;2022-08-23T05:24:58;7.07;;;4.63;;
505;SDS011;551;48.524;9.056;2022-08-23T05:27:24;13.67;;;6.63;;
505;SDS011;551;48.524;9.056;2022-08-23T05:29:50;10.90;;;7.00;;
505;SDS011;551;48.524;9.056;2022-08-23T05:32:18;7.40;;;6.70;;
505;SDS011;551;48.524;9.056;2022-08-23T05:34:45;7.87;;;5.80;;
505;SDS011;551;48.524;9.056;2022-08-23T05:37:11;9.03;;;6.10;;
505;SDS011;551;48.524;9.056;2022-08-23T05:39:37;7.67;;;6.30;;
505;SDS011;551;48.524;9.056;2022-08-23T05:42:04;5.50;;;4.97;;
505;SDS011;551;48.524;9.056;2022-08-23T05:44:30;8.70;;;6.17;;
505;SDS011;551;48.524;9.056;2022-08-23T05:46:56;7.47;;;6.10;;
505;SDS011;551;48.524;9.056;2022-08-23T05:49:22;10.10;;;7.00;;
505;SDS011;551;48.524;9.056;2022-08-23T05:51:51;12.03;;;6.90;;
505;SDS011;551;48.524;9.056;2022-08-23T05:54:16;8.20;;;5.93;;
505;SDS011;551;48.524;9.056;2022-08-23T05:56:43;8.83;;;6.27;;
505;SDS011;551;48.524;9.056;2022-08-23T05:59:10;8.30;;;6.77;;
505;SDS011;551;48.524;9.056;2022-08-23T06:01:36;8.60;;;6.20;;
505;SDS011;551;48.524;9.056;2022-08-23T06:04:04;6.30;;;5.70;;
505;SDS011;551;48.524;9.056;2022-08-23T06:06:31;6.10;;;5.50;;
505;SDS011;551;48.524;9.056;2022-08-23T06:08:57;8.17;;;5.63;;
505;SDS011;551;48.524;9.056;2022-08-23T06:11:24;7.37;;;6.30;;
505;SDS011;551;48.524;9.056;2022-08-23T06:13:53;6.20;;;5.70;;
505;SDS011;551;48.524;9.056;2022-08-23T06:16:20;7.07;;;6.37;;
505;SDS011;551;48.524;9.056;2022-08-23T06:18:48;7.40;;;5.77;;
505;SDS011;551;48.524;9.056;2022-08-23T06:21:14;6.60;;;5.60;;
505;SDS011;551;48.524;9.056;2022-08-23T06:23:41;6.33;;;5.70;;
505;SDS011;551;48.524;9.056;2022-08-23T06:26:14;7.50;;;5.77;;
505;SDS011;551;48.524;9.056;2022-08-23T06:28:41;6.17;;;5.57;;
505;SDS011;551;48.524;9.056;2022-08-23T06:31:07;6.57;;;5.97;;
505;SDS011;551;48.524;9.056;2022-08-23T06:33:35;6.90;;;5.00;;
505;SDS011;551;48.524;9.056;2022-08-23T06:36:05;6.43;;;5.87;;
505;SDS011;551;48.524;9.056;2022-08-23T06:38:32;6.97;;;6.40;;
505;SDS011;551;48.524;9.056;2022-08-23T06:40:59;6.57;;;5.90;;
505;SDS011;551;48.524;9.056;2022-08-23T06:43:25;9.00;;;6.03;;
505;SDS011;551;48.524;9.056;2022-08-23T06:45:51;6.10;;;5.60;;
505;SDS011;551;48.524;9.056;2022-08-23T06:48:17;11.13;;;5.67;;
505;SDS011;551;48.524;9.056;2022-08-23T06:50:43;5.97;;;5.37;;
505;SDS011;551;48.524;9.056;2022-08-23T06:53:10;5.90;;;5.23;;
505;SDS011;551;48.524;9.056;2022-08-23T06:55:36;5.50;;;4.97;;
505;SDS011;551;48.524;9.056;2022-08-23T06:58:02;6.37;;;5.83;;
505;SDS011;551;48.524;9.056;2022-08-23T07:00:28;5.97;;;5.47;;
505;SDS011;551;48.524;9.056;2022-08-23T07:02:54;5.47;;;5.07;;
505;SDS011;551;48.524;9.056;2022-08-23T07:05:21;6.10;;;5.63;;
505;SDS011;551;48.524;9.056;2022-08-23T07:07:47;8.47;;;6.10;;
505;SDS011;551;48.524;9.056;2022-08-23T07:10:13;5.60;;;5.20;;
505;SDS011;551;48.524;9.056;2022-08-23T07:12:40;5.97;;;5.47;;
505;SDS011;551;48.524;9.056;2022-08-23T07:15:06;6.13;;;5.53;;
505;SDS011;551;48.524;9.056;2022-08-23T07:17:32;6.10;;;5.53;;
505;SDS011;551;48.524;9.056;2022-08-23T07:19:58;6.40;;;5.90;;
505;SDS011;551;48.524;9.056;2022-08-23T07:22:24;6.70;;;6.10;;
505;SDS011;551;48.524;9.056;2022-08-23T07:24:50;5.40;;;5.00;;
505;SDS011;551;48.524;9.056;2022-08-23T07:27:16;10.40;;;5.90;;
505;SDS011;551;48.524;9.056;2022-08-23T07:29:42;7.33;;;5.43;;
505;SDS011;551;48.524;9.056;2022-08-23T07:32:08;5.33;;;4.83;;
505;SDS011;551;48.524;9.056;2022-08-23T07:34:34;8.30;;;5.83;;
505;SDS011;551;48.524;9.056;2022-08-23T07:37:00;7.50;;;5.70;;
505;SDS011;551;48.524;9.056;2022-08-23T07:39:27;8.83;;;5.57;;
505;SDS011;551;48.524;9.056;2022-08-23T07:41:56;6.67;;;6.07;;
505;SDS011;551;48.524;9.056;2022-08-23T07:44:22;6.70;;;5.60;;
505;SDS011;551;48.524;9.056;2022-08-23T07:46:48;6.20;;;5.50;;
505;SDS011;551;48.524;9.056;2022-08-23T07:49:15;7.10;;;5.70;;
505;SDS011;551;48.524;9.056;2022-08-23T07:51:43;6.57;;;5.27;;
505;SDS011;551;48.524;9.056;2022-08-23T07:54:09;6.20;;;4.97;;
505;SDS011;551;48.524;9.056;2022-08-23T07:56:37;6.50;;;5.73;;
505;SDS011;551;48.524;9.056;2022-08-23T07:59:03;5.47;;;4.97;;
505;SDS011;551;48.524;9.056;2022-08-23T08:01:30;6.27;;;5.63;;
505;SDS011;551;48.524;9.056;2022-08-23T08:03:57;6.80;;;5.60;;
505;SDS011;551;48.524;9.056;2022-08-23T08:06:25;5.53;;;5.13;;
505;SDS011;551;48.524;9.056;2022-08-23T08:08:51;6.07;;;5.30;;
505;SDS011;551;48.524;9.056;2022-08-23T08:11:18;5.30;;;4.80;;
505;SDS011;551;48.524;9.056;2022-08-23T08:13:45;5.03;;;4.60;;
505;SDS011;551;48.524;9.056;2022-08-23T08:16:18;7.93;;;6.37;;
505;SDS011;551;48.524;9.056;2022-08-23T08:18:48;5.70;;;5.30;;
505;SDS011;551;48.524;9.056;2022-08-23T08:21:15;5.50;;;5.10;;
505;SDS011;551;48.524;9.056;2022-08-23T08:23:41;5.00;;;4.47;;
505;SDS011;551;48.524;9.056;2022-08-23T08:26:07;6.13;;;4.60;;
505;SDS011;551;48.524;9.056;2022-08-23T08:28:33;5.00;;;4.60;;
505;SDS011;551;48.524;9.056;2022-08-23T08:31:00;5.23;;;4.57;;
505;SDS011;551;48.524;9.056;2022-08-23T08:33:26;4.90;;;4.03;;
505;SDS011;551;48.524;9.056;2022-08-23T08:35:52;4.50;;;4.20;;
505;SDS011;551;48.524;9.056;2022-08-23T08:38:18;6.80;;;4.40;;
505;SDS011;551;48.524;9.056;2022-08-23T08:40:44;4.73;;;4.37;;
505;SDS011;551;48.524;9.056;2022-08-23T08:45:59;4.47;;;4.17;;
505;SDS011;551;48.524;9.056;2022-08-23T08:48:27;4.33;;;3.80;;
505;SDS011;551;48.524;9.056;2022-08-23T08:50:57;4.53;;;4.10;;
505;SDS011;551;48.524;9.056;2022-08-23T08:53:29;9.57;;;3.77;;
505;SDS011;551;48.524;9.056;2022-08-23T08:55:58;4.37;;;3.70;;
505;SDS011;551;48.524;9.056;2022-08-23T08:58:27;4.63;;;4.33;;
505;SDS011;551;48.524;9.056;2022-08-23T09:00:54;4.93;;;4.00;;
505;SDS011;551;48.524;9.056;2022-08-23T09:03:20;3.57;;;3.37;;
505;SDS011;551;48.524;9.056;2022-08-23T09:05:58;4.77;;;4.37;;
505;SDS011;551;48.524;9.056;2022-08-23T09:08:49;5.97;;;5.30;;
505;SDS011;551;48.524;9.056;2022-08-23T09:11:24;5.53;;;5.13;;
505;SDS011;551;48.524;9.056;2022-08-23T09:14:01;5.20;;;4.73;;
505;SDS011;551;48.524;9.056;2022-08-23T09:19:04;5.43;;;5.00;;
505;SDS011;551;48.524;9.056;2022-08-23T09:21:47;5.00;;;4.70;;
505;SDS011;551;48.524;9.056;2022-08-23T09:24:14;5.60;;;5.17;;
505;SDS011;551;48.524;9.056;2022-08-23T09:26:40;5.20;;;4.80;;
505;SDS011;551;48.524;9.056;2022-08-23T09:29:16;5.40;;;5.10;;
505;SDS011;551;48.524;9.056;2022-08-23T09:34:09;4.80;;;4.53;;
505;SDS011;551;48.524;9.056;2022-08-23T09:36:39;5.43;;;4.93;;
505;SDS011;551;48.524;9.056;2022-08-23T09:41:50;5.77;;;4.87;;
505;SDS011;551;48.524;9.056;2022-08-23T09:44:28;4.77;;;4.47;;
505;SDS011;551;48.524;9.056;2022-08-23T09:47:11;4.23;;;3.93;;
505;SDS011;551;48.524;9.056;2022-08-23T09:49:38;4.70;;;4.40;;
505;SDS011;551;48.524;9.056;2022-08-23T09:52:10;4.60;;;4.27;;
505;SDS011;551;48.524;9.056;2022-08-23T09:54:37;5.87;;;4.57;;
505;SDS011;551;48.524;9.056;2022-08-23T09:57:06;4.50;;;4.17;;
505;SDS011;551;48.524;9.056;2022-08-23T10:02:03;5.17;;;4.87;;
505;SDS011;551;48.524;9.056;2022-08-23T10:04:39;4.80;;;4.60;;
505;SDS011;551;48.524;9.056;2022-08-23T10:09:50;4.53;;;4.23;;
505;SDS011;551;48.524;9.056;2022-08-23T10:12:16;3.37;;;3.17;;
505;SDS011;551;48.524;9.056;2022-08-23T10:14:42;3.37;;;3.07;;
505;SDS011;551;48.524;9.056;2022-08-23T10:19:38;3.13;;;2.83;;
505;SDS011;551;48.524;9.056;2022-08-23T10:30:42;4.77;;;4.37;;
505;SDS011;551;48.524;9.056;2022-08-23T10:33:19;5.23;;;4.60;;
505;SDS011;551;48.524;9.056;2022-08-23T10:36:05;4.90;;;4.60;;
505;SDS011;551;48.524;9.056;2022-08-23T10:38:42;5.30;;;4.90;;
505;SDS011;551;48.524;9.056;2022-08-23T10:46:22;5.07;;;4.80;;
505;SDS011;551;48.524;9.056;2022-08-23T10:48:53;5.47;;;4.97;;
505;SDS011;551;48.524;9.056;2022-08-23T10:51:23;4.80;;;4.60;;
505;SDS011;551;48.524;9.056;2022-08-23T10:53:57;7.63;;;4.70;;
505;SDS011;551;48.524;9.056;2022-08-23T10:56:25;4.60;;;4.20;;
505;SDS011;551;48.524;9.056;2022-08-23T10:58:53;4.90;;;4.60;;
505;SDS011;551;48.524;9.056;2022-08-23T11:01:21;5.03;;;4.67;;
505;SDS011;551;48.524;9.056;2022-08-23T11:03:55;4.90;;;4.60;;
505;SDS011;551;48.524;9.056;2022-08-23T11:09:09;4.43;;;4.23;;
505;SDS011;551;48.524;9.056;2022-08-23T11:17:26;4.70;;;4.40;;
505;SDS011;551;48.524;9.056;2022-08-23T11:19:57;5.27;;;4.97;;
505;SDS011;551;48.524;9.056;2022-08-23T11:27:42;4.80;;;4.50;;
505;SDS011;551;48.524;9.056;2022-08-23T11:32:53;5.07;;;4.67;;
505;SDS011;551;48.524;9.056;2022-08-23T11:35:28;4.57;;;4.27;;
505;SDS011;551;48.524;9.056;2022-08-23T11:38:00;4.90;;;4.63;;
505;SDS011;551;48.524;9.056;2022-08-23T11:43:27;5.20;;;4.90;;
505;SDS011;551;48.524;9.056;2022-08-23T11:45:51;5.33;;;4.97;;
505;SDS011;551;48.524;9.056;2022-08-23T11:48:23;4.60;;;4.40;;
505;SDS011;551;48.524;9.056;2022-08-23T11:51:04;5.07;;;4.67;;
505;SDS011;551;48.524;9.056;2022-08-23T12:01:32;4.63;;;4.33;;
505;SDS011;551;48.524;9.056;2022-08-23T12:04:05;4.60;;;4.40;;
505;SDS011;551;48.524;9.056;2022-08-23T12:06:37;4.60;;;4.40;;
505;SDS011;551;48.524;9.056;2022-08-23T12:09:06;4.73;;;4.47;;
505;SDS011;551;48.524;9.056;2022-08-23T12:16:55;5.67;;;5.27;;
505;SDS011;551;48.524;9.056;2022-08-23T12:19:33;4.60;;;4.40;;
505;SDS011;551;48.524;9.056;2022-08-23T12:22:04;5.13;;;4.73;;
505;SDS011;551;48.524;9.056;2022-08-23T12:24:33;4.40;;;4.20;;
505;SDS011;551;48.524;9.056;2022-08-23T12:35:03;4.87;;;4.47;;
505;SDS011;551;48.524;9.056;2022-08-23T12:37:52;4.50;;;4.30;;
505;SDS011;551;48.524;9.056;2022-08-23T12:40:29;5.03;;;4.73;;
505;SDS011;551;48.524;9.056;2022-08-23T12:43:06;5.00;;;4.80;;
505;SDS011;551;48.524;9.056;2022-08-23T12:45:37;4.60;;;4.40;;
505;SDS011;551;48.524;9.056;2022-08-23T12:48:05;4.77;;;4.40;;
505;SDS011;551;48.524;9.056;2022-08-23T12:50:33;5.03;;;3.97;;
505;SDS011;551;48.524;9.056;2022-08-23T12:53:01;4.70;;;4.50;;
505;SDS011;551;48.524;9.056;2022-08-23T12:55:30;4.50;;;4.30;;
505;SDS011;551;48.524;9.056;2022-08-23T12:57:56;4.83;;;4.50;;
505;SDS011;551;48.524;9.056;2022-08-23T13:00:29;4.43;;;4.13;;
505;SDS011;551;48.524;9.056;2022-08-23T13:03:10;4.20;;;3.90;;
505;SDS011;551;48.524;9.056;2022-08-23T13:05:45;4.50;;;4.20;;
505;SDS011;551;48.524;9.056;2022-08-23T13:08:22;7.67;;;4.77;;
505;SDS011;551;48.524;9.056;2022-08-23T13:10:49;5.37;;;5.07;;
505;SDS011;551;48.524;9.056;2022-08-23T13:13:18;5.27;;;4.73;;
505;SDS011;551;48.524;9.056;2022-08-23T13:23:38;4.43;;;4.23;;
505;SDS011;551;48.524;9.056;2022-08-23T13:26:26;4.33;;;4.13;;
505;SDS011;551;48.524;9.056;2022-08-23T13:31:25;5.33;;;4.13;;
505;SDS011;551;48.524;9.056;2022-08-23T13:33:51;4.47;;;4.20;;
505;SDS011;551;48.524;9.056;2022-08-23T13:36:19;4.40;;;4.13;;
505;SDS011;551;48.524;9.056;2022-08-23T13:38:45;3.20;;;2.90;;
505;SDS011;551;48.524;9.056;2022-08-23T13:41:26;4.17;;;3.07;;
505;SDS011;551;48.524;9.056;2022-08-23T13:43:53;3.10;;;2.57;;
505;SDS011;551;48.524;9.056;2022-08-23T13:46:20;3.23;;;2.40;;
505;SDS011;551;48.524;9.056;2022-08-23T13:51:16;4.47;;;4.17;;
505;SDS011;551;48.524;9.056;2022-08-23T13:53:42;4.43;;;4.03;;
505;SDS011;551;48.524;9.056;2022-08-23T13:56:08;4.50;;;4.10;;
505;SDS011;551;48.524;9.056;2022-08-23T13:58:34;4.07;;;3.87;;
505;SDS011;551;48.524;9.056;2022-08-23T14:01:01;4.20;;;3.90;;
505;SDS011;551;48.524;9.056;2022-08-23T14:03:28;4.50;;;4.10;;
505;SDS011;551;48.524;9.056;2022-08-23T14:05:55;5.30;;;3.70;;
505;SDS011;551;48.524;9.056;2022-08-23T14:08:21;4.40;;;3.63;;
505;SDS011;551;48.524;9.056;2022-08-23T14:10:47;3.97;;;3.67;;
505;SDS011;551;48.524;9.056;2022-08-23T14:13:14;4.53;;;4.10;;
505;SDS011;551;48.524;9.056;2022-08-23T14:15:41;4.10;;;3.80;;
505;SDS011;551;48.524;9.056;2022-08-23T14:18:07;6.30;;;3.50;;
505;SDS011;551;48.524;9.056;2022-08-23T14:20:34;3.97;;;3.67;;
505;SDS011;551;48.524;9.056;2022-08-23T14:23:00;3.80;;;3.50;;
505;SDS011;551;48.524;9.056;2022-08-23T14:25:26;3.83;;;3.40;;
505;SDS011;551;48.524;9.056;2022-08-23T14:27:52;4.57;;;4.17;;
505;SDS011;551;48.524;9.056;2022-08-23T14:30:36;3.73;;;3.47;;
505;SDS011;551;48.524;9.056;2022-08-23T14:33:03;4.20;;;3.80;;
505;SDS011;551;48.524;9.056;2022-08-23T14:35:29;4.10;;;3.80;;
505;SDS011;551;48.524;9.056;2022-08-23T14:37:55;3.93;;;3.63;;
505;SDS011;551;48.524;9.056;2022-08-23T14:40:21;4.17;;;3.80;;
505;SDS011;551;48.524;9.056;2022-08-23T14:42:47;4.50;;;3.80;;
505;SDS011;551;48.524;9.056;2022-08-23T14:45:14;4.00;;;3.70;;
505;SDS011;551;48.524;9.056;2022-08-23T14:47:40;3.77;;;3.57;;
505;SDS011;551;48.524;9.056;2022-08-23T14:50:08;4.30;;;3.77;;
505;SDS011;551;48.524;9.056;2022-08-23T14:52:35;4.33;;;3.93;;
505;SDS011;551;48.524;9.056;2022-08-23T14:55:01;4.43;;;3.87;;
505;SDS011;551;48.524;9.056;2022-08-23T14:57:27;5.63;;;4.17;;
505;SDS011;551;48.524;9.056;2022-08-23T14:59:53;3.87;;;3.57;;
505;SDS011;551;48.524;9.056;2022-08-23T15:02:21;3.90;;;3.63;;
505;SDS011;551;48.524;9.056;2022-08-23T15:04:48;4.13;;;3.83;;
505;SDS011;551;48.524;9.056;2022-08-23T15:07:14;3.83;;;3.63;;
505;SDS011;551;48.524;9.056;2022-08-23T15:09:40;4.37;;;4.03;;
505;SDS011;551;48.524;9.056;2022-08-23T15:12:06;3.70;;;3.37;;
505;SDS011;551;48.524;9.056;2022-08-23T15:14:32;5.80;;;3.97;;
505;SDS011;551;48.524;9.056;2022-08-23T15:16:58;3.53;;;3.30;;
505;SDS011;551;48.524;9.056;2022-08-23T15:19:27;3.90;;;3.70;;
505;SDS011;551;48.524;9.056;2022-08-23T15:21:52;4.43;;;3.80;;
505;SDS011;551;48.524;9.056;2022-08-23T15:24:18;4.10;;;3.80;;
505;SDS011;551;48.524;9.056;2022-08-23T15:26:44;3.70;;;3.40;;
505;SDS011;551;48.524;9.056;2022-08-23T15:29:10;4.10;;;3.80;;
505;SDS011;551;48.524;9.056;2022-08-23T15:31:36;3.57;;;3.37;;
505;SDS011;551;48.524;9.056;2022-08-23T15:34:03;4.10;;;3.77;;
505;SDS011;551;48.524;9.056;2022-08-23T15:36:29;4.13;;;3.83;;
505;SDS011;551;48.524;9.056;2022-08-23T15:38:55;3.40;;;3.23;;
505;SDS011;551;48.524;9.056;2022-08-23T15:41:21;4.00;;;3.70;;
505;SDS011;551;48.524;9.056;2022-08-23T15:43:47;4.30;;;3.93;;
505;SDS011;551;48.524;9.056;2022-08-23T15:46:20;3.73;;;3.53;;
505;SDS011;551;48.524;9.056;2022-08-23T15:48:48;4.10;;;3.80;;
505;SDS011;551;48.524;9.056;2022-08-23T15:51:16;4.50;;;4.20;;
505;SDS011;551;48.524;9.056;2022-08-23T15:53:43;3.83;;;3.53;;
505;SDS011;551;48.524;9.056;2022-08-23T15:56:11;4.40;;;4.00;;
505;SDS011;551;48.524;9.056;2022-08-23T15:58:38;4.10;;;3.90;;
505;SDS011;551;48.524;9.056;2022-08-23T16:01:04;3.77;;;3.57;;
505;SDS011;551;48.524;9.056;2022-08-23T16:03:31;3.80;;;3.50;;
505;SDS011;551;48.524;9.056;2022-08-23T16:05:56;3.97;;;3.70;;
505;SDS011;551;48.524;9.056;2022-08-23T16:08:27;4.17;;;3.60;;
505;SDS011;551;48.524;9.056;2022-08-23T16:10:54;4.23;;;3.50;;
505;SDS011;551;48.524;9.056;2022-08-23T16:13:20;4.20;;;3.63;;
505;SDS011;551;48.524;9.056;2022-08-23T16:15:49;4.00;;;3.70;;
505;SDS011;551;48.524;9.056;2022-08-23T16:18:15;4.10;;;3.70;;
505;SDS011;551;48.524;9.056;2022-08-23T16:20:42;6.87;;;3.47;;
505;SDS011;551;48.524;9.056;2022-08-23T16:23:08;3.77;;;3.47;;
505;SDS011;551;48.524;9.056;2022-08-23T16:25:34;3.80;;;3.50;;
505;SDS011;551;48.524;9.056;2022-08-23T16:28:00;3.97;;;3.73;;
505;SDS011;551;48.524;9.056;2022-08-23T16:30:26;3.77;;;3.57;;
505;SDS011;551;48.524;9.056;2022-08-23T16:32:53;3.90;;;3.70;;
505;SDS011;551;48.524;9.056;2022-08-23T16:35:19;3.97;;;3.70;;
505;SDS011;551;48.524;9.056;2022-08-23T16:37:45;5.33;;;3.57;;
505;SDS011;551;48.524;9.056;2022-08-23T16:40:11;4.37;;;4.07;;
505;SDS011;551;48.524;9.056;2022-08-23T16:42:37;4.43;;;3.97;;
505;SDS011;551;48.524;9.056;2022-08-23T16:45:03;5.33;;;3.73;;
505;SDS011;551;48.524;9.056;2022-08-23T16:47:31;4.93;;;3.37;;
505;SDS011;551;48.524;9.056;2022-08-23T16:49:58;3.97;;;3.67;;
505;SDS011;551;48.524;9.056;2022-08-23T16:52:24;4.20;;;3.70;;
505;SDS011;551;48.524;9.056;2022-08-23T16:54:50;3.93;;;3.60;;
505;SDS011;551;48.524;9.056;2022-08-23T16:57:17;3.87;;;3.57;;
505;SDS011;551;48.524;9.056;2022-08-23T16:59:43;4.40;;;4.00;;
505;SDS011;551;48.524;9.056;2022-08-23T17:02:17;3.53;;;3.20;;
505;SDS011;551;48.524;9.056;2022-08-23T17:04:47;4.13;;;3.73;;
505;SDS011;551;48.524;9.056;2022-08-23T17:07:13;4.90;;;3.60;;
505;SDS011;551;48.524;9.056;2022-08-23T17:09:39;4.20;;;3.90;;
505;SDS011;551;48.524;9.056;2022-08-23T17:12:06;3.83;;;3.53;;
505;SDS011;551;48.524;9.056;2022-08-23T17:14:31;4.00;;;3.60;;
505;SDS011;551;48.524;9.056;2022-08-23T17:16:57;3.43;;;3.23;;
505;SDS011;551;48.524;9.056;2022-08-23T17:19:24;3.70;;;3.40;;